createdAt,value
2018-11-03T00:00:19.460Z,101939.13
2018-11-03T00:02:47.858Z,101931.50
2018-11-03T00:05:16.477Z,101937.19
2018-11-03T00:07:44.948Z,101930.06
2018-11-03T00:10:12.972Z,101927.71
2018-11-03T00:12:41.023Z,101930.34
2018-11-03T00:15:09.420Z,101933.44
2018-11-03T00:17:37.450Z,101932.87
2018-11-03T00:20:06.210Z,101936.34
2018-11-03T00:22:34.298Z,101942.83
2018-11-03T00:25:02.296Z,101940.69
2018-11-03T00:27:30.321Z,101941.30
2018-11-03T00:29:58.408Z,101944.40
2018-11-03T00:32:26.594Z,101949.42
2018-11-03T00:34:54.593Z,101948.10
2018-11-03T00:37:22.605Z,101946.34
2018-11-03T00:39:50.629Z,101945.88
2018-11-03T00:42:18.658Z,101941.63
2018-11-03T00:44:46.637Z,101936.94
2018-11-03T00:47:14.673Z,101939.82
2018-11-03T00:49:42.749Z,101942.22
2018-11-03T00:52:10.732Z,101943.22
2018-11-03T00:54:38.737Z,101948.37
2018-11-03T00:57:06.788Z,101949.02
2018-11-03T00:59:34.776Z,101948.33
2018-11-03T01:02:02.913Z,101956.25
2018-11-03T01:04:30.977Z,101953.80
2018-11-03T01:06:58.977Z,101953.80
2018-11-03T01:09:27.045Z,101950.94
2018-11-03T01:11:55.085Z,101954.63
2018-11-03T01:14:23.178Z,101962.36
2018-11-03T01:16:51.266Z,101965.52
2018-11-03T01:19:19.248Z,101967.28
2018-11-03T01:21:47.281Z,101973.75
2018-11-03T01:24:15.264Z,101979.45
2018-11-03T01:26:43.388Z,101974.67
2018-11-03T01:29:11.686Z,101974.41
2018-11-03T01:31:39.692Z,101975.71
2018-11-03T01:34:07.705Z,101985.03
2018-11-03T01:36:35.773Z,101980.80
2018-11-03T01:39:04.649Z,101988.77
2018-11-03T01:41:32.582Z,101983.86
2018-11-03T01:44:00.615Z,101988.81
2018-11-03T01:46:28.672Z,101995.87
2018-11-03T01:48:56.651Z,101990.86
2018-11-03T01:51:24.690Z,101995.87
2018-11-03T01:53:52.686Z,101998.59
2018-11-03T01:56:20.691Z,102001.88
2018-11-03T01:58:48.957Z,102003.98
2018-11-03T02:01:16.969Z,102001.31
2018-11-03T02:03:44.976Z,101992.67
2018-11-03T02:06:12.974Z,101994.38
2018-11-03T02:08:41.240Z,101992.16
2018-11-03T02:11:09.335Z,101993.08
2018-11-03T02:13:37.348Z,101996.54
2018-11-03T02:16:05.828Z,101988.23
2018-11-03T02:18:33.837Z,101983.77
2018-11-03T02:21:01.833Z,101989.44
2018-11-03T02:23:29.837Z,101989.89
2018-11-03T02:25:57.989Z,101990.45
2018-11-03T02:28:26.016Z,101986.54
2018-11-03T02:30:54.133Z,101990.45
2018-11-03T02:33:22.213Z,101985.63
2018-11-03T02:35:50.237Z,101992.66
2018-11-03T02:38:18.273Z,101998.25
2018-11-03T02:40:46.286Z,101994.38
2018-11-03T02:43:14.325Z,101993.92
2018-11-03T02:45:42.360Z,102004.42
2018-11-03T02:48:10.435Z,101998.34
2018-11-03T02:50:38.474Z,101991.42
2018-11-03T02:53:06.459Z,101999.61
2018-11-03T02:55:34.449Z,101986.48
2018-11-03T02:58:02.453Z,101991.16
2018-11-03T03:00:30.449Z,101991.56
2018-11-03T03:02:58.496Z,101997.13
2018-11-03T03:05:26.726Z,101990.50
2018-11-03T03:07:54.729Z,101985.31
2018-11-03T03:10:22.856Z,101987.56
2018-11-03T03:12:50.840Z,101989.55
2018-11-03T03:15:18.860Z,101993.77
2018-11-03T03:17:46.870Z,101986.30
2018-11-03T03:20:14.861Z,101995.28
2018-11-03T03:22:43.065Z,102000.42
2018-11-03T03:25:11.734Z,101994.67
2018-11-03T03:27:39.814Z,102001.27
2018-11-03T03:30:09.453Z,102004.33
2018-11-03T03:32:37.459Z,102011.27
2018-11-03T03:35:06.213Z,102009.11
2018-11-03T03:37:34.241Z,102005.09
2018-11-03T03:40:02.297Z,102019.91
2018-11-03T03:42:30.280Z,102025.09
2018-11-03T03:44:58.321Z,102021.13
2018-11-03T03:47:26.329Z,102030.48
2018-11-03T03:49:54.345Z,102025.00
2018-11-03T03:52:22.460Z,102030.37
2018-11-03T03:54:50.482Z,102030.50
2018-11-03T03:57:18.489Z,102030.23
2018-11-03T03:59:46.643Z,102029.90
2018-11-03T04:02:14.633Z,102033.00
2018-11-03T04:04:42.684Z,102035.61
2018-11-03T04:07:10.747Z,102045.05
2018-11-03T04:09:38.751Z,102047.13
2018-11-03T04:14:35.400Z,102049.48
2018-11-03T04:17:03.388Z,102051.05
2018-11-03T04:19:31.449Z,102051.01
2018-11-03T04:21:59.460Z,102045.78
2018-11-03T04:24:27.473Z,102047.33
2018-11-03T04:26:55.617Z,102044.26
2018-11-03T04:29:23.629Z,102037.33
2018-11-03T04:31:51.745Z,102037.28
2018-11-03T04:34:19.906Z,102033.45
2018-11-03T04:36:47.929Z,102035.62
2018-11-03T04:39:15.945Z,102030.98
2018-11-03T04:41:44.224Z,102030.78
2018-11-03T04:44:12.261Z,102032.00
2018-11-03T04:46:40.461Z,102030.37
2018-11-03T04:49:08.466Z,102036.98
2018-11-03T04:51:36.614Z,102039.45
2018-11-03T04:54:04.625Z,102035.21
2018-11-03T04:56:32.669Z,102031.44
2018-11-03T04:59:00.673Z,102028.70
2018-11-03T05:01:28.677Z,102031.77
2018-11-03T05:03:56.884Z,102036.39
2018-11-03T05:06:25.038Z,102029.61
2018-11-03T05:08:53.047Z,102028.86
2018-11-03T05:11:21.060Z,102029.34
2018-11-03T05:13:49.082Z,102031.09
2018-11-03T05:16:17.165Z,102039.56
2018-11-03T05:18:45.571Z,102038.22
2018-11-03T05:21:13.830Z,102044.19
2018-11-03T05:23:41.765Z,102051.98
2018-11-03T05:26:09.756Z,102052.72
2018-11-03T05:28:37.936Z,102052.62
2018-11-03T05:31:06.119Z,102053.45
2018-11-03T05:33:34.072Z,102054.03
2018-11-03T05:36:02.110Z,102056.72
2018-11-03T05:38:30.208Z,102048.80
2018-11-03T05:40:58.209Z,102047.41
2018-11-03T05:43:26.289Z,102053.33
2018-11-03T05:45:54.300Z,102054.52
2018-11-03T05:48:22.349Z,102056.51
2018-11-03T05:50:50.336Z,102055.11
2018-11-03T05:53:18.329Z,102059.80
2018-11-03T05:55:46.417Z,102059.89
2018-11-03T05:58:14.494Z,102058.58
2018-11-03T06:00:42.522Z,102060.79
2018-11-03T06:03:10.512Z,102065.03
2018-11-03T06:05:38.522Z,102068.45
2018-11-03T06:08:06.384Z,102065.02
2018-11-03T06:10:34.416Z,102058.98
2018-11-03T06:13:02.408Z,102063.86
2018-11-03T06:15:30.468Z,102070.84
2018-11-03T06:17:58.409Z,102069.95
2018-11-03T06:20:26.438Z,102076.47
2018-11-03T06:22:54.503Z,102074.31
2018-11-03T06:25:22.436Z,102085.67
2018-11-03T06:27:50.470Z,102081.88
2018-11-03T06:30:18.410Z,102077.22
2018-11-03T06:32:46.406Z,102084.08
2018-11-03T06:35:14.474Z,102087.10
2018-11-03T06:37:42.436Z,102093.16
2018-11-03T06:40:10.515Z,102097.11
2018-11-03T06:42:38.881Z,102098.61
2018-11-03T06:45:08.094Z,102099.13
2018-11-03T06:47:36.172Z,102102.64
2018-11-03T06:50:05.628Z,102107.38
2018-11-03T06:52:33.741Z,102111.64
2018-11-03T06:55:01.755Z,102109.47
2018-11-03T06:57:29.740Z,102115.03
2018-11-03T06:59:57.749Z,102114.47
2018-11-03T07:02:25.818Z,102109.48
2018-11-03T07:04:53.998Z,102105.06
2018-11-03T07:07:21.985Z,102111.42
2018-11-03T07:09:50.102Z,102115.15
2018-11-03T07:12:18.221Z,102105.78
2018-11-03T07:14:46.152Z,102108.63
2018-11-03T07:17:14.277Z,102117.05
2018-11-03T07:19:42.285Z,102125.03
2018-11-03T07:22:10.317Z,102121.17
2018-11-03T07:24:38.332Z,102120.67
2018-11-03T07:27:06.443Z,102124.75
2018-11-03T07:29:34.591Z,102127.03
2018-11-03T07:32:02.581Z,102124.97
2018-11-03T07:34:30.569Z,102128.86
2018-11-03T07:36:58.713Z,102128.87
2018-11-03T07:39:26.789Z,102119.54
2018-11-03T07:41:54.821Z,102130.56
2018-11-03T07:44:22.857Z,102129.65
2018-11-03T07:46:50.859Z,102134.67
2018-11-03T07:49:19.124Z,102127.08
2018-11-03T07:51:48.402Z,102128.47
2018-11-03T07:54:16.528Z,102136.57
2018-11-03T07:56:44.672Z,102143.45
2018-11-03T07:59:12.724Z,102141.66
2018-11-03T08:01:40.741Z,102141.12
2018-11-03T08:04:09.209Z,102134.46
2018-11-03T08:06:37.493Z,102139.06
2018-11-03T08:09:07.734Z,102141.56
2018-11-03T08:11:35.841Z,102141.87
2018-11-03T08:14:03.829Z,102148.19
2018-11-03T08:16:31.825Z,102150.02
2018-11-03T08:18:59.924Z,102152.84
2018-11-03T08:21:28.025Z,102148.55
2018-11-03T08:23:56.121Z,102142.84
2018-11-03T08:26:24.020Z,102143.70
2018-11-03T08:28:52.066Z,102146.41
2018-11-03T08:31:20.152Z,102137.53
2018-11-03T08:33:48.145Z,102147.61
2018-11-03T08:36:16.285Z,102148.77
2018-11-03T08:38:44.285Z,102141.80
2018-11-03T08:41:12.313Z,102140.27
2018-11-03T08:43:40.297Z,102137.17
2018-11-03T08:46:09.100Z,102144.73
2018-11-03T08:48:37.300Z,102133.56
2018-11-03T08:51:05.296Z,102133.93
2018-11-03T08:53:33.276Z,102133.49
2018-11-03T08:56:01.289Z,102132.41
2018-11-03T08:58:29.304Z,102130.47
2018-11-03T09:00:57.308Z,102137.07
2018-11-03T09:03:25.430Z,102146.53
2018-11-03T09:05:53.417Z,102146.52
2018-11-03T09:08:21.463Z,102150.09
2018-11-03T09:10:49.652Z,102140.58
2018-11-03T09:13:17.713Z,102142.05
2018-11-03T09:15:45.716Z,102142.49
2018-11-03T09:18:13.750Z,102142.80
2018-11-03T09:20:41.763Z,102144.80
2018-11-03T09:23:10.035Z,102150.48
2018-11-03T09:25:38.057Z,102150.97
2018-11-03T09:28:06.053Z,102144.27
2018-11-03T09:30:34.043Z,102155.49
2018-11-03T09:33:02.109Z,102143.54
2018-11-03T09:35:30.109Z,102140.27
2018-11-03T09:37:58.182Z,102135.61
2018-11-03T09:40:26.172Z,102140.77
2018-11-03T09:42:54.227Z,102139.19
2018-11-03T09:45:22.180Z,102133.89
2018-11-03T09:47:50.200Z,102140.19
2018-11-03T09:50:18.206Z,102148.02
2018-11-03T09:52:46.186Z,102145.23
2018-11-03T09:55:15.796Z,102144.97
2018-11-03T09:57:43.976Z,102143.52
2018-11-03T10:00:14.275Z,102143.41
2018-11-03T10:02:42.268Z,102151.70
2018-11-03T10:05:11.564Z,102149.25
2018-11-03T10:07:39.597Z,102150.35
2018-11-03T10:10:09.929Z,102153.50
2018-11-03T10:12:37.940Z,102159.63
2018-11-03T10:15:05.953Z,102157.18
2018-11-03T10:17:33.983Z,102155.59
2018-11-03T10:20:02.001Z,102161.70
2018-11-03T10:22:30.103Z,102146.70
2018-11-03T10:24:58.157Z,102144.98
2018-11-03T10:27:26.152Z,102134.98
2018-11-03T10:29:54.155Z,102131.31
2018-11-03T10:32:22.135Z,102126.30
2018-11-03T10:34:50.137Z,102124.72
2018-11-03T10:37:18.219Z,102122.52
2018-11-03T10:39:46.250Z,102120.58
2018-11-03T10:42:14.277Z,102122.53
2018-11-03T10:44:42.323Z,102115.80
2018-11-03T10:47:10.341Z,102109.95
2018-11-03T10:49:42.576Z,102099.72
2018-11-03T10:52:11.166Z,102104.50
2018-11-03T10:54:39.358Z,102106.60
2018-11-03T10:57:07.711Z,102104.28
2018-11-03T10:59:35.804Z,102106.58
2018-11-03T11:02:09.146Z,102105.31
2018-11-03T11:04:42.581Z,102099.48
2018-11-03T11:07:17.811Z,102093.72
2018-11-03T11:09:51.156Z,102084.25
2018-11-03T11:12:24.721Z,102083.56
2018-11-03T11:14:52.996Z,102086.80
2018-11-03T11:17:21.001Z,102089.39
2018-11-03T11:19:49.020Z,102083.09
2018-11-03T11:22:17.305Z,102082.24
2018-11-03T11:24:45.591Z,102083.61
2018-11-03T11:27:13.502Z,102086.46
2018-11-03T11:29:41.513Z,102082.42
2018-11-03T11:32:09.553Z,102088.33
2018-11-03T11:34:37.551Z,102085.30
2018-11-03T11:37:05.740Z,102088.98
2018-11-03T11:39:33.816Z,102084.81
2018-11-03T11:42:01.795Z,102084.64
2018-11-03T11:44:29.794Z,102083.36
2018-11-03T11:46:57.801Z,102078.96
2018-11-03T11:49:25.825Z,102075.02
2018-11-03T11:51:53.813Z,102074.23
2018-11-03T11:54:21.946Z,102069.93
2018-11-03T11:56:49.929Z,102062.14
2018-11-03T11:59:17.924Z,102062.05
2018-11-03T12:01:45.916Z,102062.95
2018-11-03T12:04:14.113Z,102057.76
2018-11-03T12:06:42.184Z,102062.76
2018-11-03T12:09:10.593Z,102069.28
2018-11-03T12:11:38.619Z,102061.14
2018-11-03T12:14:06.613Z,102052.72
2018-11-03T12:16:34.689Z,102048.38
2018-11-03T12:19:02.675Z,102052.38
2018-11-03T12:21:30.776Z,102051.42
2018-11-03T12:23:58.759Z,102053.56
2018-11-03T12:26:26.747Z,102043.03
2018-11-03T12:28:54.777Z,102035.94
2018-11-03T12:31:22.769Z,102032.75
2018-11-03T12:33:50.913Z,102032.08
2018-11-03T12:36:19.000Z,102036.36
2018-11-03T12:38:46.964Z,102038.77
2018-11-03T12:41:15.272Z,102037.46
2018-11-03T12:43:43.191Z,102029.06
2018-11-03T12:46:11.341Z,102025.73
2018-11-03T12:48:39.300Z,102022.01
2018-11-03T12:51:07.278Z,102026.09
2018-11-03T12:53:35.521Z,102027.73
2018-11-03T12:56:03.573Z,102025.55
2018-11-03T12:58:31.600Z,102013.94
2018-11-03T13:00:59.587Z,102019.34
2018-11-03T13:03:27.692Z,102016.63
2018-11-03T13:05:55.604Z,102012.21
2018-11-03T13:08:23.604Z,102015.25
2018-11-03T13:10:51.574Z,102017.92
2018-11-03T13:13:19.597Z,102013.61
2018-11-03T13:15:47.658Z,102014.11
2018-11-03T13:18:15.626Z,102016.68
2018-11-03T13:20:43.625Z,102010.25
2018-11-03T13:23:11.645Z,102010.68
2018-11-03T13:25:39.650Z,101998.33
2018-11-03T13:28:07.644Z,102000.00
2018-11-03T13:30:35.689Z,101995.39
2018-11-03T13:33:03.748Z,101995.66
2018-11-03T13:35:31.749Z,101998.19
2018-11-03T13:37:59.744Z,101991.17
2018-11-03T13:40:27.737Z,101991.42
2018-11-03T13:42:55.781Z,101989.20
2018-11-03T13:45:23.800Z,101986.55
2018-11-03T13:47:51.910Z,101980.33
2018-11-03T13:50:19.814Z,101977.72
2018-11-03T13:52:48.644Z,101978.22
2018-11-03T13:55:16.663Z,101975.43
2018-11-03T13:57:45.660Z,101977.89
2018-11-03T14:00:15.069Z,101973.67
2018-11-03T14:02:44.936Z,101971.34
2018-11-03T14:05:12.966Z,101976.02
2018-11-03T14:07:40.948Z,101972.13
2018-11-03T14:10:11.591Z,101973.91
2018-11-03T14:12:39.658Z,101973.98
2018-11-03T14:15:09.183Z,101978.75
2018-11-03T14:17:37.200Z,101975.38
2018-11-03T14:20:06.549Z,101972.70
2018-11-03T14:22:34.563Z,101975.28
2018-11-03T14:25:02.546Z,101979.91
2018-11-03T14:27:30.560Z,101983.14
2018-11-03T14:29:58.623Z,101989.05
2018-11-03T14:32:26.697Z,101982.50
2018-11-03T14:34:54.766Z,101974.52
2018-11-03T14:37:22.798Z,101974.31
2018-11-03T14:39:51.308Z,101970.15
2018-11-03T14:42:19.420Z,101972.03
2018-11-03T14:44:47.494Z,101963.83
2018-11-03T14:47:15.520Z,101962.73
2018-11-03T14:49:43.636Z,101962.01
2018-11-03T14:52:11.732Z,101964.38
2018-11-03T14:54:39.736Z,101961.31
2018-11-03T14:57:07.731Z,101956.80
2018-11-03T14:59:35.730Z,101959.70
2018-11-03T15:02:03.717Z,101955.56
2018-11-03T15:04:31.704Z,101956.19
2018-11-03T15:06:59.704Z,101954.19
2018-11-03T15:09:27.708Z,101955.10
2018-11-03T15:11:56.792Z,101949.88
2018-11-03T15:14:25.020Z,101945.91
2018-11-03T15:16:52.833Z,101947.61
2018-11-03T15:19:20.879Z,101944.34
2018-11-03T15:21:48.942Z,101944.12
2018-11-03T15:24:16.980Z,101943.95
2018-11-03T15:26:44.992Z,101940.27
2018-11-03T15:29:13.117Z,101936.30
2018-11-03T15:31:41.250Z,101938.27
2018-11-03T15:34:09.456Z,101934.83
2018-11-03T15:36:37.575Z,101926.69
2018-11-03T15:39:06.479Z,101925.05
2018-11-03T15:41:34.628Z,101919.41
2018-11-03T15:44:02.586Z,101918.92
2018-11-03T15:46:30.606Z,101911.56
2018-11-03T15:48:58.650Z,101909.52
2018-11-03T15:51:26.738Z,101912.36
2018-11-03T15:53:54.817Z,101915.19
2018-11-03T15:56:22.824Z,101907.36
2018-11-03T15:58:50.893Z,101905.06
2018-11-03T16:01:25.373Z,101909.06
2018-11-03T16:03:53.380Z,101895.30
2018-11-03T16:06:21.427Z,101900.77
2018-11-03T16:08:49.428Z,101899.09
2018-11-03T16:11:17.445Z,101895.09
2018-11-03T16:13:45.481Z,101898.45
2018-11-03T16:16:13.505Z,101892.88
2018-11-03T16:18:41.630Z,101893.95
2018-11-03T16:21:09.697Z,101892.08
2018-11-03T16:23:37.781Z,101896.38
2018-11-03T16:26:05.873Z,101895.69
2018-11-03T16:28:34.014Z,101898.15
2018-11-03T16:31:01.869Z,101894.09
2018-11-03T16:33:29.979Z,101893.49
2018-11-03T16:35:58.492Z,101890.48
2018-11-03T16:38:26.674Z,101887.73
2018-11-03T16:40:54.536Z,101886.26
2018-11-03T16:43:22.549Z,101880.39
2018-11-03T16:45:50.620Z,101888.44
2018-11-03T16:48:18.605Z,101894.02
2018-11-03T16:50:46.592Z,101887.50
2018-11-03T16:53:14.669Z,101883.02
2018-11-03T16:55:42.680Z,101878.53
2018-11-03T16:58:10.691Z,101885.32
2018-11-03T17:00:38.679Z,101885.13
2018-11-03T17:03:06.886Z,101877.18
2018-11-03T17:05:35.068Z,101884.09
2018-11-03T17:08:03.065Z,101880.63
2018-11-03T17:10:31.129Z,101885.65
2018-11-03T17:12:59.180Z,101880.98
2018-11-03T17:15:27.149Z,101882.14
2018-11-03T17:17:55.290Z,101881.41
2018-11-03T17:20:23.443Z,101876.09
2018-11-03T17:22:51.518Z,101873.16
2018-11-03T17:25:19.612Z,101875.58
2018-11-03T17:27:47.539Z,101872.95
2018-11-03T17:30:16.077Z,101870.66
2018-11-03T17:32:44.613Z,101865.92
2018-11-03T17:35:12.816Z,101864.08
2018-11-03T17:37:40.973Z,101866.49
2018-11-03T17:40:09.785Z,101862.24
2018-11-03T17:42:37.809Z,101860.99
2018-11-03T17:45:06.628Z,101866.19
2018-11-03T17:47:34.710Z,101863.53
2018-11-03T17:50:02.813Z,101858.39
2018-11-03T17:52:30.813Z,101858.77
2018-11-03T17:54:58.897Z,101857.17
2018-11-03T17:57:26.843Z,101856.25
2018-11-03T17:59:54.982Z,101854.89
2018-11-03T18:02:23.030Z,101852.89
2018-11-03T18:04:51.185Z,101853.29
2018-11-03T18:07:19.257Z,101849.89
2018-11-03T18:09:47.268Z,101851.03
2018-11-03T18:12:15.383Z,101850.47
2018-11-03T18:14:43.424Z,101848.44
2018-11-03T18:17:11.420Z,101843.30
2018-11-03T18:19:39.533Z,101844.31
2018-11-03T18:22:07.601Z,101845.44
2018-11-03T18:24:35.601Z,101841.69
2018-11-03T18:27:03.629Z,101833.16
2018-11-03T18:29:31.617Z,101835.16
2018-11-03T18:31:59.688Z,101842.42
2018-11-03T18:34:27.754Z,101834.50
2018-11-03T18:36:55.777Z,101847.11
2018-11-03T18:39:23.797Z,101845.73
2018-11-03T18:41:51.852Z,101843.68
2018-11-03T18:44:19.843Z,101841.91
2018-11-03T18:46:47.940Z,101838.78
2018-11-03T18:49:15.911Z,101844.34
2018-11-03T18:51:43.938Z,101844.59
2018-11-03T18:54:12.093Z,101846.73
2018-11-03T18:56:41.176Z,101836.34
2018-11-03T18:59:09.197Z,101836.55
2018-11-03T19:01:37.236Z,101827.63
2018-11-03T19:04:05.252Z,101828.37
2018-11-03T19:06:33.253Z,101825.76
2018-11-03T19:09:01.413Z,101823.24
2018-11-03T19:11:29.362Z,101822.02
2018-11-03T19:13:57.590Z,101818.31
2018-11-03T19:16:25.564Z,101818.62
2018-11-03T19:18:53.653Z,101817.41
2018-11-03T19:21:21.664Z,101811.86
2018-11-03T19:23:49.831Z,101813.95
2018-11-03T19:26:17.683Z,101808.38
2018-11-03T19:28:45.882Z,101811.10
2018-11-03T19:31:13.882Z,101809.41
2018-11-03T19:33:41.885Z,101810.74
2018-11-03T19:36:09.908Z,101806.44
2018-11-03T19:38:37.929Z,101807.34
2018-11-03T19:41:06.028Z,101804.36
2018-11-03T19:45:55.928Z,101801.96
2018-11-03T19:48:24.000Z,101808.22
2018-11-03T19:50:52.021Z,101802.53
2018-11-03T19:53:20.084Z,101803.77
2018-11-03T19:55:48.155Z,101803.08
2018-11-03T19:58:16.151Z,101796.22
2018-11-03T20:00:44.312Z,101796.07
2018-11-03T20:03:12.364Z,101800.62
2018-11-03T20:05:40.316Z,101805.07
2018-11-03T20:08:08.338Z,101798.56
2018-11-03T20:10:36.392Z,101800.55
2018-11-03T20:13:04.417Z,101794.22
2018-11-03T20:15:32.521Z,101793.37
2018-11-03T20:18:00.596Z,101792.43
2018-11-03T20:20:28.543Z,101789.81
2018-11-03T20:22:56.631Z,101788.95
2018-11-03T20:25:24.677Z,101790.28
2018-11-03T20:27:52.709Z,101785.21
2018-11-03T20:30:20.735Z,101795.20
2018-11-03T20:32:48.763Z,101791.77
2018-11-03T20:35:16.778Z,101785.45
2018-11-03T20:37:44.772Z,101785.45
2018-11-03T20:40:13.804Z,101784.70
2018-11-03T20:42:41.816Z,101776.77
2018-11-03T20:45:09.864Z,101781.70
2018-11-03T20:47:38.436Z,101766.45
2018-11-03T20:50:08.094Z,101764.97
2018-11-03T20:52:36.105Z,101766.53
2018-11-03T20:55:04.129Z,101766.03
2018-11-03T20:57:32.135Z,101763.19
2018-11-03T21:00:00.150Z,101755.96
2018-11-03T21:02:28.193Z,101750.45
2018-11-03T21:04:56.242Z,101755.25
2018-11-03T21:07:24.213Z,101749.75
2018-11-03T21:09:52.261Z,101746.47
2018-11-03T21:12:20.296Z,101742.02
2018-11-03T21:14:48.325Z,101740.44
2018-11-03T21:17:16.341Z,101742.39
2018-11-03T21:19:44.499Z,101745.84
2018-11-03T21:22:13.208Z,101742.37
2018-11-03T21:24:41.245Z,101741.17
2018-11-03T21:27:10.692Z,101736.42
2018-11-03T21:29:38.765Z,101732.45
2018-11-03T21:32:07.312Z,101731.11
2018-11-03T21:34:35.145Z,101729.88
2018-11-03T21:37:03.301Z,101725.36
2018-11-03T21:39:31.298Z,101724.09
2018-11-03T21:41:59.336Z,101722.48
2018-11-03T21:44:27.371Z,101722.38
2018-11-03T21:46:55.476Z,101710.88
2018-11-03T21:49:23.488Z,101721.52
2018-11-03T21:51:51.753Z,101713.57
2018-11-03T21:54:19.732Z,101712.47
2018-11-03T21:56:47.739Z,101701.23
2018-11-03T21:59:15.706Z,101702.87
2018-11-03T22:01:43.697Z,101694.89
2018-11-03T22:04:11.684Z,101688.26
2018-11-03T22:06:39.865Z,101689.92
2018-11-03T22:09:09.749Z,101685.03
2018-11-03T22:11:37.765Z,101674.55
2018-11-03T22:14:05.815Z,101678.41
2018-11-03T22:16:33.897Z,101676.53
2018-11-03T22:19:02.482Z,101682.83
2018-11-03T22:21:31.235Z,101678.80
2018-11-03T22:23:59.530Z,101675.39
2018-11-03T22:26:28.028Z,101666.59
2018-11-03T22:28:56.255Z,101669.92
2018-11-03T22:31:24.433Z,101670.59
2018-11-03T22:33:52.421Z,101664.70
2018-11-03T22:36:21.291Z,101666.86
2018-11-03T22:38:49.381Z,101664.33
2018-11-03T22:41:17.365Z,101666.84
2018-11-03T22:43:45.417Z,101664.48
2018-11-03T22:46:13.483Z,101654.13
2018-11-03T22:48:41.519Z,101650.93
2018-11-03T22:51:13.733Z,101655.80
2018-11-03T22:53:42.023Z,101645.71
2018-11-03T22:56:10.482Z,101644.75
2018-11-03T22:58:38.513Z,101638.09
2018-11-03T23:01:06.546Z,101633.16
2018-11-03T23:03:34.687Z,101630.29
2018-11-03T23:06:03.439Z,101624.73
2018-11-03T23:08:32.009Z,101620.05
2018-11-03T23:11:00.241Z,101617.17
2018-11-03T23:13:28.354Z,101617.23
2018-11-03T23:15:56.461Z,101611.16
2018-11-03T23:18:24.492Z,101603.67
2018-11-03T23:20:52.530Z,101602.51
2018-11-03T23:23:20.539Z,101599.52
2018-11-03T23:25:48.553Z,101589.45
2018-11-03T23:28:16.576Z,101588.77
2018-11-03T23:30:44.601Z,101591.39
2018-11-03T23:33:12.668Z,101581.25
2018-11-03T23:35:40.705Z,101578.14
2018-11-03T23:38:08.766Z,101577.66
2018-11-03T23:40:36.774Z,101571.31
2018-11-03T23:43:04.921Z,101568.80
2018-11-03T23:45:33.005Z,101568.52
2018-11-03T23:48:01.080Z,101560.05
2018-11-03T23:50:29.739Z,101560.42
2018-11-03T23:52:58.220Z,101555.32
2018-11-03T23:55:26.749Z,101551.70
2018-11-03T23:57:55.490Z,101550.39
